Time;durP1;ratioP1;P1;durP2;ratioP2;P2;SDS_P1;SDS_P2;PMS_P1;PMS_P2;Temp;Humidity;BMP_temperature;BMP_pressure;BME280_temperature;BME280_humidity;BME280_pressure;Samples;Min_cycle;Max_cycle;Signal;HPM_P1;HPM_P2
2022/10/16 00:01:20;;;;;;;0.40;0.40;;;;;;;4.82;100.00;99531.84;5025185;28;20552;-77
2022/10/16 00:03:47;;;;;;;0.40;0.40;;;;;;;4.79;100.00;99529.50;5029094;28;20429;-79
2022/10/16 00:06:13;;;;;;;0.30;0.30;;;;;;;4.61;100.00;99527.88;5026326;28;20057;-79
2022/10/16 00:08:39;;;;;;;0.40;0.40;;;;;;;4.51;100.00;99526.38;5027318;28;20075;-77
2022/10/16 00:11:11;;;;;;;0.40;0.40;;;;;;;4.69;100.00;99552.84;5019011;28;20045;-79
2022/10/16 00:13:38;;;;;;;0.40;0.40;;;;;;;4.68;100.00;99541.34;5061700;28;20033;-78
2022/10/16 00:16:04;;;;;;;0.40;0.40;;;;;;;4.77;100.00;99556.31;5009523;28;20124;-79
2022/10/16 00:18:30;;;;;;;0.40;0.40;;;;;;;4.97;100.00;99582.59;5025669;28;20116;-77
2022/10/16 00:21:21;;;;;;;0.40;0.40;;;;;;;5.11;100.00;99576.59;5024527;28;20033;-80
2022/10/16 00:24:10;;;;;;;0.40;0.40;;;;;;;5.18;100.00;99601.53;5021528;28;20103;-77
2022/10/16 00:26:37;;;;;;;0.40;0.40;;;;;;;5.11;100.00;99592.56;5012563;28;20037;-77
2022/10/16 00:29:03;;;;;;;0.40;0.40;;;;;;;5.18;100.00;99596.22;5031280;28;20095;-79
2022/10/16 00:31:29;;;;;;;0.40;0.40;;;;;;;5.19;100.00;99587.22;5007301;28;20095;-80
2022/10/16 00:33:55;;;;;;;0.47;0.47;;;;;;;5.19;100.00;99591.72;5010014;28;20037;-77
2022/10/16 00:36:23;;;;;;;0.40;0.40;;;;;;;5.16;100.00;99589.38;5024215;28;20444;-77
2022/10/16 00:38:54;;;;;;;0.40;0.40;;;;;;;5.11;100.00;99589.06;5030594;28;20025;-77
2022/10/16 00:41:21;;;;;;;0.40;0.40;;;;;;;5.21;100.00;99595.91;5021012;28;20037;-79
2022/10/16 00:43:51;;;;;;;0.40;0.40;;;;;;;5.31;100.00;99608.19;5029177;28;20041;-77
2022/10/16 00:46:20;;;;;;;0.40;0.40;;;;;;;5.37;100.00;99603.03;5026518;28;20037;-79
2022/10/16 00:48:57;;;;;;;0.40;0.40;;;;;;;5.42;100.00;99602.50;4996248;28;20042;-77
2022/10/16 00:51:25;;;;;;;0.45;0.45;;;;;;;5.46;100.00;99609.16;5024625;28;20060;-78
2022/10/16 00:53:51;;;;;;;0.40;0.40;;;;;;;5.55;100.00;99629.44;5024491;28;20029;-78
2022/10/16 00:56:17;;;;;;;0.40;0.40;;;;;;;5.58;100.00;99623.75;5025186;28;20545;-80
2022/10/16 00:58:43;;;;;;;0.40;0.40;;;;;;;5.58;100.00;99629.09;5007013;28;20057;-80
2022/10/16 01:01:09;;;;;;;0.40;0.40;;;;;;;5.62;100.00;99656.28;5027093;28;20061;-77
2022/10/16 01:03:36;;;;;;;0.40;0.40;;;;;;;5.64;100.00;99681.78;5007776;28;20084;-79
2022/10/16 01:06:17;;;;;;;0.40;0.40;;;;;;;5.62;100.00;99673.09;5025994;28;20068;-78
2022/10/16 01:08:54;;;;;;;0.40;0.40;;;;;;;5.80;100.00;99690.75;5027133;28;20041;-78
2022/10/16 01:11:34;;;;;;;0.40;0.40;;;;;;;5.88;100.00;99688.03;5027127;28;20517;-79
2022/10/16 01:14:06;;;;;;;0.40;0.40;;;;;;;5.90;100.00;99680.69;5011526;28;20050;-78
2022/10/16 01:16:38;;;;;;;0.40;0.40;;;;;;;5.88;100.00;99672.03;5029507;28;20108;-78
2022/10/16 01:19:14;;;;;;;0.40;0.40;;;;;;;5.85;100.00;99673.22;5008083;28;20041;-78
2022/10/16 01:21:43;;;;;;;0.40;0.40;;;;;;;5.68;100.00;99652.91;5012800;28;20525;-79
2022/10/16 01:24:34;;;;;;;0.40;0.40;;;;;;;5.79;100.00;99668.53;5025984;28;20039;-77
2022/10/16 01:27:08;;;;;;;0.40;0.40;;;;;;;5.71;100.00;99671.22;5022792;28;20060;-80
2022/10/16 01:30:10;;;;;;;0.40;0.40;;;;;;;5.63;100.00;99668.59;5027735;28;20033;-78
2022/10/16 01:32:42;;;;;;;0.40;0.40;;;;;;;5.66;100.00;99681.59;5002273;28;20037;-77
2022/10/16 01:35:16;;;;;;;0.40;0.40;;;;;;;5.75;100.00;99669.06;5008238;28;20125;-78
2022/10/16 01:37:57;;;;;;;0.40;0.40;;;;;;;5.65;100.00;99654.09;5043806;28;20033;-77
2022/10/16 01:40:24;;;;;;;0.40;0.40;;;;;;;5.35;100.00;99641.50;5026935;28;20041;-78
2022/10/16 01:42:55;;;;;;;0.40;0.40;;;;;;;4.97;100.00;99638.53;5025050;28;20515;-78
2022/10/16 01:45:23;;;;;;;0.40;0.40;;;;;;;4.87;100.00;99665.34;5007412;28;20510;-81
2022/10/16 01:47:50;;;;;;;0.40;0.40;;;;;;;4.71;100.00;99650.19;5027813;28;20506;-76
2022/10/16 01:50:18;;;;;;;0.43;0.43;;;;;;;4.57;100.00;99650.81;5001445;28;20061;-79
2022/10/16 01:52:46;;;;;;;0.40;0.40;;;;;;;4.57;100.00;99658.81;5024920;28;20030;-78
2022/10/16 01:55:16;;;;;;;0.40;0.40;;;;;;;4.53;100.00;99665.47;5018596;28;20068;-77
2022/10/16 01:57:46;;;;;;;0.40;0.40;;;;;;;4.52;100.00;99671.78;4989202;28;20067;-78
2022/10/16 02:00:13;;;;;;;0.50;0.50;;;;;;;4.60;100.00;99671.78;5023784;28;20061;-80
2022/10/16 02:02:45;;;;;;;0.40;0.40;;;;;;;4.40;100.00;99665.94;5005466;28;20407;-80
2022/10/16 02:05:16;;;;;;;0.40;0.40;;;;;;;4.28;100.00;99665.41;4989178;28;20454;-77
2022/10/16 02:07:42;;;;;;;0.47;0.47;;;;;;;4.32;100.00;99668.59;5016680;28;20033;-77
2022/10/16 02:10:08;;;;;;;0.40;0.40;;;;;;;4.18;100.00;99678.00;5015051;28;20037;-79
2022/10/16 02:12:36;;;;;;;0.40;0.40;;;;;;;4.05;100.00;99673.16;5019282;28;20120;-78
2022/10/16 02:15:02;;;;;;;0.40;0.40;;;;;;;4.07;100.00;99676.47;5017869;28;20125;-77
2022/10/16 02:17:28;;;;;;;0.40;0.40;;;;;;;4.21;100.00;99685.69;5025183;28;20045;-79
2022/10/16 02:19:55;;;;;;;0.40;0.40;;;;;;;4.31;100.00;99683.72;5026643;28;20072;-78
2022/10/16 02:22:23;;;;;;;0.40;0.40;;;;;;;4.43;100.00;99686.09;5027490;28;20040;-79
2022/10/16 02:24:58;;;;;;;0.40;0.40;;;;;;;4.46;100.00;99675.94;5036910;28;20041;-78
2022/10/16 02:27:34;;;;;;;0.40;0.40;;;;;;;4.52;100.00;99687.75;5021297;28;20053;-82
2022/10/16 02:30:08;;;;;;;0.40;0.40;;;;;;;4.44;100.00;99690.41;5043871;28;20037;-80
2022/10/16 02:32:37;;;;;;;0.40;0.40;;;;;;;4.40;100.00;99704.03;5026523;28;20033;-81
2022/10/16 02:35:03;;;;;;;0.40;0.40;;;;;;;4.36;100.00;99705.34;5007958;28;20483;-79
2022/10/16 02:37:29;;;;;;;0.40;0.40;;;;;;;4.32;100.00;99703.19;5027674;28;20033;-81
2022/10/16 02:39:56;;;;;;;0.40;0.40;;;;;;;4.22;100.00;99705.97;5027272;28;20030;-79
2022/10/16 02:42:38;;;;;;;0.40;0.40;;;;;;;4.14;100.00;99708.59;5040707;28;20083;-79
2022/10/16 02:45:05;;;;;;;0.30;0.30;;;;;;;4.09;100.00;99726.88;5038099;28;20468;-78
2022/10/16 02:47:30;;;;;;;0.50;0.50;;;;;;;4.04;100.00;99714.03;4994406;28;20029;-78
2022/10/16 02:49:56;;;;;;;0.40;0.40;;;;;;;3.99;100.00;99720.81;5028165;28;20028;-79
2022/10/16 02:52:22;;;;;;;0.40;0.40;;;;;;;3.82;100.00;99720.75;5006801;28;20038;-78
2022/10/16 02:54:47;;;;;;;0.50;0.50;;;;;;;3.73;100.00;99735.81;5024113;28;20030;-80
2022/10/16 02:57:13;;;;;;;0.40;0.40;;;;;;;3.61;100.00;99741.56;5021960;28;20124;-78
2022/10/16 02:59:39;;;;;;;0.40;0.40;;;;;;;3.38;100.00;99728.75;4996246;28;20492;-81
2022/10/16 03:02:04;;;;;;;0.40;0.40;;;;;;;3.34;100.00;99747.84;5020456;28;20041;-78
2022/10/16 03:04:30;;;;;;;0.40;0.40;;;;;;;3.27;100.00;99752.91;5010560;28;20037;-80
2022/10/16 03:06:56;;;;;;;0.40;0.40;;;;;;;3.18;100.00;99759.16;5019979;28;20036;-78
2022/10/16 03:09:21;;;;;;;0.40;0.40;;;;;;;3.06;100.00;99762.03;5022845;28;20065;-77
2022/10/16 03:11:47;;;;;;;0.43;0.43;;;;;;;2.91;100.00;99760.06;4995557;28;20045;-80
2022/10/16 03:14:13;;;;;;;0.40;0.40;;;;;;;2.71;100.00;99772.63;5006069;28;20048;-77
2022/10/16 03:16:38;;;;;;;0.40;0.40;;;;;;;2.49;100.00;99764.09;5021056;28;20563;-78
2022/10/16 03:19:04;;;;;;;0.43;0.43;;;;;;;2.41;100.00;99774.63;5010806;28;20426;-78
2022/10/16 03:21:30;;;;;;;0.40;0.40;;;;;;;2.30;100.00;99780.97;5027790;28;20060;-80
2022/10/16 03:23:55;;;;;;;0.40;0.40;;;;;;;2.26;100.00;99784.06;5027769;28;20041;-77
2022/10/16 03:26:21;;;;;;;0.40;0.40;;;;;;;2.25;100.00;99785.00;5027647;28;20033;-79
2022/10/16 03:28:46;;;;;;;0.40;0.40;;;;;;;2.35;100.00;99788.47;5028506;28;20371;-78
2022/10/16 03:31:12;;;;;;;0.40;0.40;;;;;;;2.48;100.00;99782.81;5028918;28;20029;-80
2022/10/16 03:33:38;;;;;;;0.40;0.40;;;;;;;2.61;100.00;99784.13;5032202;28;20528;-78
2022/10/16 03:36:03;;;;;;;0.47;0.47;;;;;;;2.78;100.00;99779.84;5010754;28;20044;-78
2022/10/16 03:38:29;;;;;;;0.40;0.40;;;;;;;3.08;100.00;99781.31;5030936;28;20463;-78
2022/10/16 03:40:55;;;;;;;0.40;0.40;;;;;;;3.29;100.00;99794.28;5026128;28;20033;-77
2022/10/16 03:43:20;;;;;;;0.50;0.50;;;;;;;3.44;100.00;99791.06;5010084;28;20064;-79
2022/10/16 03:45:46;;;;;;;0.40;0.40;;;;;;;3.50;100.00;99793.13;5012488;28;20091;-77
2022/10/16 03:48:12;;;;;;;0.40;0.40;;;;;;;3.51;100.00;99803.59;4995748;28;20029;-78
2022/10/16 03:50:37;;;;;;;0.40;0.40;;;;;;;3.40;100.00;99805.69;5014219;28;20079;-77
2022/10/16 03:53:03;;;;;;;0.40;0.40;;;;;;;3.23;100.00;99805.53;5010296;28;20038;-81
2022/10/16 03:55:29;;;;;;;0.40;0.40;;;;;;;2.96;100.00;99797.63;5026072;28;20089;-78
2022/10/16 03:57:54;;;;;;;0.40;0.40;;;;;;;3.00;100.00;99805.13;5028388;28;20068;-78
2022/10/16 04:00:20;;;;;;;0.40;0.40;;;;;;;2.94;100.00;99816.38;5025711;28;20083;-77
2022/10/16 04:02:45;;;;;;;0.50;0.50;;;;;;;2.77;100.00;99822.47;5013553;28;20056;-77
2022/10/16 04:05:11;;;;;;;0.40;0.40;;;;;;;2.55;100.00;99807.78;5008665;28;20427;-78
2022/10/16 04:07:37;;;;;;;0.40;0.40;;;;;;;2.45;100.00;99818.44;5029500;28;20041;-78
2022/10/16 04:10:06;;;;;;;0.40;0.40;;;;;;;2.26;100.00;99815.88;5009263;28;20041;-77
2022/10/16 04:12:32;;;;;;;0.40;0.40;;;;;;;2.09;100.00;99828.06;5027384;28;20037;-78
2022/10/16 04:14:58;;;;;;;0.40;0.40;;;;;;;1.93;100.00;99826.00;5027154;28;20064;-78
2022/10/16 04:17:23;;;;;;;0.50;0.50;;;;;;;1.73;100.00;99815.44;5028652;28;20033;-79
2022/10/16 04:19:49;;;;;;;0.40;0.40;;;;;;;1.57;100.00;99817.03;5024420;28;20030;-77
2022/10/16 04:22:15;;;;;;;0.40;0.40;;;;;;;1.51;100.00;99821.06;5026048;28;20065;-79
2022/10/16 04:24:40;;;;;;;0.40;0.40;;;;;;;1.41;100.00;99804.34;5026028;28;20138;-77
2022/10/16 04:27:06;;;;;;;0.40;0.40;;;;;;;1.62;100.00;99823.56;5009123;28;20095;-77
2022/10/16 04:29:32;;;;;;;0.40;0.40;;;;;;;1.66;100.00;99803.75;5028746;28;20037;-77
2022/10/16 04:31:57;;;;;;;0.30;0.30;;;;;;;1.70;100.00;99821.03;5008793;28;20034;-79
2022/10/16 04:34:23;;;;;;;0.40;0.40;;;;;;;1.79;100.00;99813.22;4994827;28;20067;-79
2022/10/16 04:36:52;;;;;;;0.50;0.50;;;;;;;1.88;100.00;99813.19;5030217;28;20083;-81
2022/10/16 04:39:17;;;;;;;0.40;0.40;;;;;;;1.80;100.00;99812.22;5027847;28;20029;-77
2022/10/16 04:41:43;;;;;;;0.40;0.40;;;;;;;1.71;100.00;99820.06;5029686;28;20036;-78
2022/10/16 04:44:08;;;;;;;0.47;0.47;;;;;;;1.62;100.00;99810.31;5012569;28;20486;-79
2022/10/16 04:46:34;;;;;;;0.40;0.40;;;;;;;1.46;100.00;99812.72;5031069;28;20025;-77
2022/10/16 04:49:00;;;;;;;0.40;0.40;;;;;;;1.44;100.00;99833.19;4990370;28;20038;-79
2022/10/16 04:51:27;;;;;;;0.47;0.47;;;;;;;1.31;100.00;99841.41;5023626;28;20030;-76
2022/10/16 04:53:54;;;;;;;0.40;0.40;;;;;;;1.22;100.00;99853.69;5031293;28;20025;-76
2022/10/16 04:56:20;;;;;;;0.47;0.47;;;;;;;1.10;100.00;99858.25;5004809;28;20041;-78
2022/10/16 04:58:46;;;;;;;0.40;0.40;;;;;;;1.12;100.00;99871.38;5006633;28;20037;-78
2022/10/16 05:01:12;;;;;;;0.40;0.40;;;;;;;1.23;100.00;99876.53;5005411;28;20072;-78
2022/10/16 05:03:37;;;;;;;0.50;0.50;;;;;;;1.18;100.00;99876.09;5010812;28;20411;-78
2022/10/16 05:06:05;;;;;;;0.40;0.40;;;;;;;1.10;100.00;99881.25;5008202;28;20096;-78
2022/10/16 05:08:31;;;;;;;0.50;0.50;;;;;;;1.08;100.00;99880.53;5026306;28;20530;-77
2022/10/16 05:10:56;;;;;;;0.50;0.50;;;;;;;1.19;100.00;99891.03;5005875;28;20057;-80
2022/10/16 05:13:23;;;;;;;0.40;0.40;;;;;;;1.25;100.00;99898.41;5026084;28;20063;-76
2022/10/16 05:15:49;;;;;;;0.40;0.40;;;;;;;1.26;100.00;99907.19;4992009;28;20102;-78
2022/10/16 05:18:15;;;;;;;0.50;0.50;;;;;;;1.30;100.00;99914.75;4992410;28;20033;-78
2022/10/16 05:20:41;;;;;;;0.50;0.50;;;;;;;1.27;100.00;99916.81;5008815;28;20036;-76
2022/10/16 05:23:09;;;;;;;0.40;0.40;;;;;;;1.27;100.00;99924.75;5026395;28;20033;-78
2022/10/16 05:25:36;;;;;;;0.50;0.50;;;;;;;1.20;100.00;99919.19;5001688;28;20037;-78
2022/10/16 05:28:02;;;;;;;0.50;0.50;;;;;;;1.14;100.00;99919.72;5024607;28;21857;-78
2022/10/16 05:30:27;;;;;;;0.40;0.40;;;;;;;1.11;100.00;99933.22;4998688;28;20056;-79
2022/10/16 05:32:53;;;;;;;0.40;0.40;;;;;;;0.99;100.00;99932.50;5024519;28;20048;-76
2022/10/16 05:35:19;;;;;;;0.40;0.40;;;;;;;0.88;100.00;99936.09;5026992;28;20079;-78
2022/10/16 05:37:45;;;;;;;0.45;0.45;;;;;;;0.84;100.00;99929.38;5025294;28;20079;-77
2022/10/16 05:40:11;;;;;;;0.50;0.50;;;;;;;0.75;100.00;99921.41;5023558;28;20124;-79
2022/10/16 05:42:37;;;;;;;0.40;0.40;;;;;;;0.61;100.00;99910.22;5024696;28;20516;-77
2022/10/16 05:45:04;;;;;;;0.40;0.40;;;;;;;0.68;100.00;99931.69;5006136;28;20116;-77
2022/10/16 05:47:30;;;;;;;0.50;0.50;;;;;;;0.75;100.00;99929.34;5027209;28;20056;-75
2022/10/16 05:49:55;;;;;;;0.40;0.40;;;;;;;0.74;100.00;99925.00;5008831;28;20068;-76
2022/10/16 05:52:21;;;;;;;0.40;0.40;;;;;;;0.75;100.00;99924.06;5020965;28;20025;-78
2022/10/16 05:54:49;;;;;;;0.40;0.40;;;;;;;0.80;100.00;99935.91;5021014;28;20068;-76
2022/10/16 05:57:15;;;;;;;0.40;0.40;;;;;;;0.78;100.00;99943.13;5021535;28;20676;-76
2022/10/16 05:59:41;;;;;;;0.40;0.40;;;;;;;0.82;100.00;99941.06;5016760;28;20430;-77
2022/10/16 06:02:12;;;;;;;0.40;0.40;;;;;;;0.94;100.00;99944.47;5016132;28;20040;-76
2022/10/16 06:04:38;;;;;;;0.40;0.40;;;;;;;1.00;100.00;99946.56;5000791;28;20025;-76
2022/10/16 06:07:03;;;;;;;0.40;0.40;;;;;;;1.02;100.00;99945.47;5022172;28;20087;-77
2022/10/16 06:09:29;;;;;;;0.40;0.40;;;;;;;1.04;100.00;99934.75;5002752;28;20368;-76
2022/10/16 06:11:54;;;;;;;0.50;0.50;;;;;;;1.07;100.00;99939.78;5024086;28;20391;-76
2022/10/16 06:14:20;;;;;;;0.40;0.40;;;;;;;1.13;100.00;99939.22;5001153;28;20068;-75
2022/10/16 06:16:46;;;;;;;0.40;0.40;;;;;;;1.12;100.00;99920.84;5016963;28;20479;-77
2022/10/16 06:19:11;;;;;;;0.40;0.40;;;;;;;1.22;100.00;99922.53;5019527;28;20498;-76
2022/10/16 06:21:37;;;;;;;0.50;0.50;;;;;;;1.25;100.00;99922.25;5015564;28;20061;-78
2022/10/16 06:24:03;;;;;;;0.40;0.40;;;;;;;1.20;100.00;99934.22;5020405;28;20033;-77
2022/10/16 06:26:29;;;;;;;0.40;0.40;;;;;;;1.12;100.00;99934.06;5026398;28;20017;-77
2022/10/16 06:28:56;;;;;;;0.40;0.40;;;;;;;1.12;100.00;99950.78;4995506;28;20026;-76
2022/10/16 06:31:22;;;;;;;0.40;0.40;;;;;;;1.24;100.00;99947.03;5030043;28;20036;-77
2022/10/16 06:33:50;;;;;;;0.50;0.50;;;;;;;1.41;100.00;99956.16;4998944;28;20033;-76
2022/10/16 06:36:17;;;;;;;0.40;0.40;;;;;;;1.51;100.00;99951.72;5016358;28;20476;-76
2022/10/16 06:38:43;;;;;;;0.40;0.40;;;;;;;1.51;100.00;99948.25;5007770;28;20026;-77
2022/10/16 06:41:14;;;;;;;0.50;0.50;;;;;;;1.49;100.00;99956.31;5032481;28;20139;-77
2022/10/16 06:43:40;;;;;;;0.40;0.40;;;;;;;1.47;100.00;99938.88;5032305;28;20028;-77
2022/10/16 06:46:10;;;;;;;0.50;0.50;;;;;;;1.60;100.00;99965.13;5031677;28;20025;-77
2022/10/16 06:48:36;;;;;;;0.40;0.40;;;;;;;1.57;100.00;99954.78;5013138;28;20124;-78
2022/10/16 06:51:10;;;;;;;0.50;0.50;;;;;;;1.57;100.00;99958.28;5032281;28;20037;-76
2022/10/16 06:53:36;;;;;;;;;;;;;;;1.58;100.00;99965.25;5028897;28;20037;-78
2022/10/16 06:56:09;;;;;;;0.50;0.50;;;;;;;1.58;100.00;99965.25;5028913;28;19925;-77
2022/10/16 06:58:34;;;;;;;0.43;0.43;;;;;;;1.59;100.00;99977.53;5029441;28;20029;-76
2022/10/16 07:01:00;;;;;;;0.40;0.40;;;;;;;1.71;100.00;99981.72;5026423;28;20499;-77
2022/10/16 07:03:25;;;;;;;0.50;0.50;;;;;;;1.64;100.00;99971.78;5024931;28;20390;-79
2022/10/16 07:05:51;;;;;;;0.45;0.45;;;;;;;1.62;100.00;99985.19;5057270;28;20028;-78
2022/10/16 07:08:22;;;;;;;0.40;0.40;;;;;;;1.62;100.00;99990.50;5036403;28;20036;-77
2022/10/16 07:10:48;;;;;;;0.40;0.40;;;;;;;1.70;100.00;100011.84;5026756;28;20037;-76
2022/10/16 07:13:14;;;;;;;0.50;0.50;;;;;;;1.82;100.00;100006.41;5029301;28;20033;-76
2022/10/16 07:15:40;;;;;;;0.43;0.43;;;;;;;1.86;100.00;100005.19;5030157;28;20196;-76
2022/10/16 07:18:06;;;;;;;0.40;0.40;;;;;;;1.80;100.00;99981.84;5012217;28;20033;-77
2022/10/16 07:20:32;;;;;;;0.40;0.40;;;;;;;2.07;100.00;100011.19;5022747;28;20037;-75
2022/10/16 07:23:00;;;;;;;0.50;0.50;;;;;;;2.10;100.00;100013.56;5025190;28;20056;-76
2022/10/16 07:25:25;;;;;;;0.40;0.40;;;;;;;2.11;100.00;99994.00;5029528;28;20394;-76
2022/10/16 07:27:51;;;;;;;0.40;0.40;;;;;;;2.24;100.00;99996.38;5013094;28;20037;-76
2022/10/16 07:30:17;;;;;;;0.40;0.40;;;;;;;2.34;100.00;99999.84;5009806;28;20037;-81
2022/10/16 07:32:42;;;;;;;0.40;0.40;;;;;;;2.35;100.00;99988.25;5020662;28;20072;-77
2022/10/16 07:35:08;;;;;;;0.40;0.40;;;;;;;2.46;100.00;99991.72;5022577;28;20037;-77
2022/10/16 07:37:34;;;;;;;0.40;0.40;;;;;;;2.51;100.00;99992.16;5025272;28;20029;-76
2022/10/16 07:40:02;;;;;;;0.40;0.40;;;;;;;2.62;100.00;99990.19;5026930;28;20053;-76
2022/10/16 07:42:28;;;;;;;0.40;0.40;;;;;;;2.74;100.00;99995.31;5010792;28;20025;-75
2022/10/16 07:44:54;;;;;;;0.40;0.40;;;;;;;2.81;100.00;99988.47;5027991;28;20038;-75
2022/10/16 07:47:20;;;;;;;0.40;0.40;;;;;;;2.89;100.00;99985.91;4991948;28;20110;-77
2022/10/16 07:49:46;;;;;;;0.47;0.47;;;;;;;2.95;100.00;99982.66;5019283;28;20029;-76
2022/10/16 07:52:11;;;;;;;0.50;0.50;;;;;;;2.95;100.00;99987.97;4986480;28;20029;-76
2022/10/16 07:54:37;;;;;;;0.40;0.40;;;;;;;2.99;100.00;99994.69;5027264;28;20252;-76
2022/10/16 07:57:02;;;;;;;0.40;0.40;;;;;;;3.07;100.00;99993.97;5004600;28;20029;-77
2022/10/16 07:59:28;;;;;;;0.50;0.50;;;;;;;3.16;100.00;99992.22;5003830;28;20037;-77
2022/10/16 08:01:54;;;;;;;0.50;0.50;;;;;;;3.24;100.00;99985.19;5012977;28;20083;-78
2022/10/16 08:04:19;;;;;;;0.47;0.47;;;;;;;3.32;100.00;99996.91;5026406;28;20933;-76
2022/10/16 08:06:45;;;;;;;0.50;0.50;;;;;;;3.36;100.00;99996.47;5007043;28;20060;-76
2022/10/16 08:09:10;;;;;;;0.50;0.50;;;;;;;3.41;100.00;99991.53;4990441;28;20065;-76
2022/10/16 08:11:36;;;;;;;0.40;0.40;;;;;;;3.56;100.00;99996.34;5010166;28;20445;-79
2022/10/16 08:14:02;;;;;;;0.40;0.40;;;;;;;3.72;100.00;100001.84;5030610;28;20029;-77
2022/10/16 08:16:27;;;;;;;0.50;0.50;;;;;;;3.89;100.00;100006.34;5026001;28;20041;-78
2022/10/16 08:18:53;;;;;;;0.40;0.40;;;;;;;3.96;100.00;99996.75;5028411;28;20041;-79
2022/10/16 08:21:21;;;;;;;0.50;0.50;;;;;;;4.10;100.00;100007.84;5026130;28;20025;-79
2022/10/16 08:23:47;;;;;;;0.40;0.40;;;;;;;4.19;100.00;100012.28;5006814;28;20404;-80
2022/10/16 08:26:13;;;;;;;0.40;0.40;;;;;;;4.24;100.00;100015.31;5016356;28;20084;-78
2022/10/16 08:28:39;;;;;;;0.50;0.50;;;;;;;4.28;100.00;100021.16;5019430;28;20483;-78
2022/10/16 08:31:14;;;;;;;0.47;0.47;;;;;;;4.29;100.00;100023.69;5041634;28;20494;-77
2022/10/16 08:33:41;;;;;;;0.40;0.40;;;;;;;4.23;100.00;100015.47;5025581;28;20112;-78
2022/10/16 08:36:10;;;;;;;0.40;0.40;;;;;;;4.13;100.00;99984.47;5005100;28;20021;-78
2022/10/16 08:38:39;;;;;;;0.40;0.40;;;;;;;4.43;100.00;100021.47;5018998;28;20036;-78
2022/10/16 08:41:36;;;;;;;0.43;0.43;;;;;;;4.48;100.00;100022.66;5013155;28;20400;-79
2022/10/16 08:44:29;;;;;;;0.40;0.40;;;;;;;4.56;100.00;100022.72;5029570;28;20036;-79
2022/10/16 08:47:07;;;;;;;0.40;0.40;;;;;;;4.59;100.00;100008.28;5025323;28;20499;-79
2022/10/16 08:49:33;;;;;;;0.45;0.45;;;;;;;4.70;100.00;100009.84;5028307;28;20467;-81
2022/10/16 08:52:00;;;;;;;0.50;0.50;;;;;;;4.76;100.00;99999.41;5029433;28;20035;-77
2022/10/16 08:54:36;;;;;;;0.50;0.50;;;;;;;4.84;100.00;100004.78;5010215;28;20044;-78
2022/10/16 08:57:16;;;;;;;0.47;0.47;;;;;;;4.83;100.00;99983.63;5006294;28;20052;-79
2022/10/16 08:59:43;;;;;;;0.50;0.50;;;;;;;4.97;100.00;99992.84;5023164;28;20069;-77
2022/10/16 09:02:34;;;;;;;0.50;0.50;;;;;;;5.04;100.00;99991.22;5025538;28;20030;-78
2022/10/16 09:05:28;;;;;;;0.40;0.40;;;;;;;5.11;100.00;99996.75;5010088;28;21661;-78
2022/10/16 09:07:53;;;;;;;0.50;0.50;;;;;;;5.14;100.00;100015.09;5025102;28;20040;-78
2022/10/16 09:10:53;;;;;;;0.40;0.40;;;;;;;5.12;100.00;100009.09;5028443;28;20041;-78
2022/10/16 09:13:24;;;;;;;0.47;0.47;;;;;;;5.22;100.00;100020.47;5030998;28;20468;-77
2022/10/16 09:16:08;;;;;;;0.40;0.40;;;;;;;5.27;100.00;100026.16;5031804;28;20045;-78
2022/10/16 09:18:59;;;;;;;0.50;0.50;;;;;;;5.28;100.00;100025.16;5028561;28;20081;-80
2022/10/16 09:21:30;;;;;;;0.40;0.40;;;;;;;5.32;100.00;100023.84;5018838;28;20514;-75
2022/10/16 09:24:18;;;;;;;0.43;0.43;;;;;;;5.33;100.00;100022.03;5010410;28;20029;-79
2022/10/16 09:26:44;;;;;;;0.40;0.40;;;;;;;5.32;100.00;100025.66;5012610;28;20325;-78
2022/10/16 09:29:19;;;;;;;0.47;0.47;;;;;;;5.29;100.00;100029.47;5012873;28;20467;-78
2022/10/16 09:31:46;;;;;;;0.43;0.43;;;;;;;5.32;100.00;100025.66;5039485;28;20063;-79
2022/10/16 09:34:21;;;;;;;0.40;0.40;;;;;;;5.32;100.00;100028.31;5029600;28;20033;-79
2022/10/16 09:36:46;;;;;;;0.50;0.50;;;;;;;5.31;100.00;100032.81;5029429;28;20029;-78
2022/10/16 09:39:12;;;;;;;0.50;0.50;;;;;;;5.35;100.00;100033.38;5030397;28;20033;-78
2022/10/16 09:41:44;;;;;;;0.50;0.50;;;;;;;5.35;100.00;100023.53;5012823;28;20037;-78
2022/10/16 09:44:29;;;;;;;0.40;0.40;;;;;;;5.40;100.00;100025.69;4994296;28;20503;-79
2022/10/16 09:47:10;;;;;;;0.40;0.40;;;;;;;5.43;100.00;100023.56;5024566;28;20060;-78
2022/10/16 09:49:36;;;;;;;0.50;0.50;;;;;;;5.48;100.00;100010.59;5010908;28;20034;-77
2022/10/16 09:52:06;;;;;;;0.40;0.40;;;;;;;5.57;100.00;100010.59;5031071;28;20570;-77
2022/10/16 09:54:31;;;;;;;0.60;0.60;;;;;;;5.62;100.00;99992.28;5011196;28;20041;-77
2022/10/16 09:57:05;;;;;;;0.50;0.50;;;;;;;5.68;100.00;99988.97;5029849;28;20518;-78
2022/10/16 09:59:31;;;;;;;;;;;;;;;5.80;100.00;99990.34;5030228;28;20065;-78
2022/10/16 10:02:00;;;;;;;0.40;0.40;;;;;;;5.88;100.00;99986.84;4995162;28;19975;-78
2022/10/16 10:04:28;;;;;;;0.50;0.50;;;;;;;5.97;100.00;99985.06;5012009;28;20042;-78
2022/10/16 10:06:55;;;;;;;0.40;0.40;;;;;;;6.03;100.00;99969.19;5011368;28;20056;-78
2022/10/16 10:09:26;;;;;;;0.47;0.47;;;;;;;6.09;100.00;99968.56;5009402;28;20491;-78
2022/10/16 10:12:02;;;;;;;0.40;0.40;;;;;;;6.14;100.00;99965.41;5012970;28;20128;-79
2022/10/16 10:14:28;;;;;;;0.40;0.40;;;;;;;6.21;100.00;99968.22;5011162;28;20480;-77
2022/10/16 10:17:06;;;;;;;0.40;0.40;;;;;;;6.27;100.00;99967.53;5029573;28;20434;-77
2022/10/16 10:19:47;;;;;;;0.40;0.40;;;;;;;6.33;100.00;99972.22;5029356;28;20065;-77
2022/10/16 10:22:26;;;;;;;0.40;0.40;;;;;;;6.39;100.00;99966.22;5030659;28;20048;-77
2022/10/16 10:25:12;;;;;;;0.40;0.40;;;;;;;6.42;100.00;99970.38;5009602;28;20361;-78
2022/10/16 10:28:03;;;;;;;0.50;0.50;;;;;;;6.45;100.00;99951.34;5037432;28;20033;-79
2022/10/16 10:30:51;;;;;;;0.40;0.40;;;;;;;6.58;100.00;99971.19;5002016;28;20468;-78
2022/10/16 10:33:41;;;;;;;0.40;0.40;;;;;;;6.63;100.00;99970.69;5009977;28;20128;-80
2022/10/16 10:36:15;;;;;;;0.40;0.40;;;;;;;6.72;100.00;99974.16;5025925;28;20080;-78
2022/10/16 10:38:51;;;;;;;0.40;0.40;;;;;;;6.79;100.00;99992.03;5050148;28;20467;-78
2022/10/16 10:41:30;;;;;;;0.50;0.50;;;;;;;6.89;100.00;99988.34;5024477;28;20049;-80
2022/10/16 10:44:14;;;;;;;0.40;0.40;;;;;;;6.99;100.00;99980.97;5007282;28;20032;-78
2022/10/16 10:47:13;;;;;;;0.40;0.40;;;;;;;7.06;100.00;99973.91;5026277;28;20030;-77
2022/10/16 10:49:41;;;;;;;0.50;0.50;;;;;;;7.23;100.00;99982.72;5004141;28;20057;-77
2022/10/16 10:52:52;;;;;;;0.40;0.40;;;;;;;7.41;100.00;99977.13;5029022;28;20057;-77
2022/10/16 10:55:27;;;;;;;0.40;0.40;;;;;;;7.49;100.00;99956.53;5023374;28;20041;-77
2022/10/16 10:58:10;;;;;;;0.40;0.40;;;;;;;7.64;100.00;99967.28;5028299;28;20017;-78
2022/10/16 11:00:44;;;;;;;;;;;;;;;7.75;100.00;99958.03;5025853;28;20033;-75
2022/10/16 11:03:27;;;;;;;0.40;0.40;;;;;;;7.88;100.00;99960.13;4993295;28;19924;-79
2022/10/16 11:05:58;;;;;;;0.50;0.50;;;;;;;7.92;100.00;99953.41;5039276;28;20037;-79
2022/10/16 11:08:48;;;;;;;0.40;0.40;;;;;;;7.99;100.00;99948.16;5027568;28;20041;-78
2022/10/16 11:11:19;;;;;;;0.40;0.40;;;;;;;8.00;100.00;99926.59;4995678;28;20037;-77
2022/10/16 11:13:55;;;;;;;0.50;0.50;;;;;;;8.08;100.00;99934.56;5006172;28;20033;-78
2022/10/16 11:16:35;;;;;;;0.40;0.40;;;;;;;8.05;100.00;99926.06;4987062;28;20052;-77
2022/10/16 11:19:22;;;;;;;0.50;0.50;;;;;;;8.07;100.00;99919.50;4996346;28;20037;-78
2022/10/16 11:21:54;;;;;;;0.40;0.40;;;;;;;8.09;100.00;99919.31;4991689;28;20038;-78
2022/10/16 11:24:35;;;;;;;0.40;0.40;;;;;;;8.12;100.00;99943.91;5008709;28;20041;-78
2022/10/16 11:27:06;;;;;;;0.40;0.40;;;;;;;8.02;100.00;99921.03;4996612;28;20491;-77
2022/10/16 11:29:33;;;;;;;0.30;0.30;;;;;;;8.01;100.00;99928.25;5014560;28;20041;-79
2022/10/16 11:32:05;;;;;;;0.40;0.40;;;;;;;8.03;100.00;99922.72;5010973;28;20147;-79
2022/10/16 11:34:49;;;;;;;0.40;0.40;;;;;;;7.95;100.00;99918.25;4994035;28;20029;-79
2022/10/16 11:37:20;;;;;;;0.40;0.40;;;;;;;7.88;100.00;99903.91;5004893;28;20558;-78
2022/10/16 11:39:47;;;;;;;0.47;0.47;;;;;;;7.89;100.00;99893.03;5032033;28;20026;-78
2022/10/16 11:42:19;;;;;;;0.40;0.40;;;;;;;7.97;100.00;99894.00;5006879;28;20041;-78
2022/10/16 11:44:51;;;;;;;0.50;0.50;;;;;;;7.88;100.00;99872.63;5018404;28;20031;-78
2022/10/16 11:47:30;;;;;;;0.40;0.40;;;;;;;8.04;100.00;99893.06;5011936;28;20151;-79